createdAt,value
2019-02-08T00:01:34.832Z,44.01
2019-02-08T00:04:03.025Z,44.11
2019-02-08T00:06:31.299Z,43.89
2019-02-08T00:08:59.462Z,43.97
2019-02-08T00:11:27.732Z,43.96
2019-02-08T00:13:55.925Z,43.77
2019-02-08T00:16:24.350Z,43.77
2019-02-08T00:18:52.560Z,43.79
2019-02-08T00:21:20.757Z,43.87
2019-02-08T00:23:48.903Z,43.79
2019-02-08T00:26:17.086Z,43.84
2019-02-08T00:28:45.257Z,43.84
2019-02-08T00:31:13.524Z,43.79
2019-02-08T00:33:42.075Z,43.68
2019-02-08T00:36:10.291Z,43.77
2019-02-08T00:38:38.459Z,43.64
2019-02-08T00:41:06.664Z,43.77
2019-02-08T00:43:34.811Z,43.65
2019-02-08T00:46:03.015Z,43.68
2019-02-08T00:48:31.272Z,43.58
2019-02-08T00:50:59.768Z,43.58
2019-02-08T00:53:33.398Z,43.35
2019-02-08T00:55:57.762Z,43.49
2019-02-08T00:58:25.939Z,43.45
2019-02-08T01:00:54.157Z,43.41
2019-02-08T01:03:22.329Z,43.44
2019-02-08T01:05:50.474Z,43.34
2019-02-08T01:08:19.004Z,43.27
2019-02-08T01:10:47.168Z,43.21
2019-02-08T01:13:15.339Z,43.28
2019-02-08T01:15:43.536Z,43.08
2019-02-08T01:18:11.716Z,43.10
2019-02-08T01:20:39.861Z,43.03
2019-02-08T01:23:08.079Z,43.03
2019-02-08T01:25:36.344Z,43.02
2019-02-08T01:28:04.496Z,42.91
2019-02-08T01:30:32.712Z,42.89
2019-02-08T01:33:00.942Z,42.83
2019-02-08T01:35:29.097Z,42.80
2019-02-08T01:37:57.520Z,42.98
2019-02-08T01:40:26.798Z,42.87
2019-02-08T01:42:54.962Z,42.91
2019-02-08T01:45:24.028Z,42.72
2019-02-08T01:47:52.232Z,42.93
2019-02-08T01:50:21.350Z,42.88
2019-02-08T01:52:49.469Z,42.76
2019-02-08T01:55:17.675Z,42.67
2019-02-08T01:57:46.133Z,42.75
2019-02-08T02:00:15.526Z,42.58
2019-02-08T02:02:43.898Z,42.64
2019-02-08T02:05:12.074Z,42.66
2019-02-08T02:07:40.260Z,42.54
2019-02-08T02:10:10.454Z,42.67
2019-02-08T02:12:38.593Z,42.62
2019-02-08T02:15:06.978Z,42.50
2019-02-08T02:17:35.131Z,42.33
2019-02-08T02:20:03.416Z,42.33
2019-02-08T02:22:31.569Z,42.33
2019-02-08T02:24:59.791Z,42.43
2019-02-08T02:27:28.001Z,42.47
2019-02-08T02:29:56.160Z,42.30
2019-02-08T02:32:24.461Z,42.35
2019-02-08T02:34:52.680Z,42.39
2019-02-08T02:37:20.883Z,42.41
2019-02-08T02:39:49.070Z,42.31
2019-02-08T02:42:17.237Z,42.24
2019-02-08T02:44:45.506Z,42.22
2019-02-08T02:47:13.649Z,42.17
2019-02-08T02:49:41.810Z,41.96
2019-02-08T02:52:10.033Z,42.09
2019-02-08T02:54:38.220Z,41.94
2019-02-08T02:57:06.413Z,41.97
2019-02-08T02:59:34.605Z,41.85
2019-02-08T03:02:02.753Z,41.88
2019-02-08T03:04:30.918Z,41.40
2019-02-08T03:06:59.102Z,41.58
2019-02-08T03:09:27.268Z,41.70
2019-02-08T03:11:55.423Z,41.65
2019-02-08T03:14:23.556Z,41.39
2019-02-08T03:16:51.749Z,41.37
2019-02-08T03:19:19.923Z,41.29
2019-02-08T03:21:48.082Z,41.46
2019-02-08T03:24:16.248Z,41.55
2019-02-08T03:26:44.423Z,41.58
2019-02-08T03:29:12.636Z,41.48
2019-02-08T03:31:40.801Z,41.13
2019-02-08T03:34:08.957Z,41.51
2019-02-08T03:36:37.179Z,41.39
2019-02-08T03:39:07.564Z,41.48
2019-02-08T03:41:35.734Z,41.42
2019-02-08T03:44:03.920Z,41.34
2019-02-08T03:46:32.104Z,41.32
2019-02-08T03:49:00.320Z,41.73
2019-02-08T03:51:28.501Z,41.41
2019-02-08T03:53:56.641Z,41.40
2019-02-08T03:56:24.827Z,41.36
2019-02-08T03:58:52.997Z,41.66
2019-02-08T04:01:21.196Z,41.54
2019-02-08T04:03:49.829Z,41.34
2019-02-08T04:06:18.045Z,41.60
2019-02-08T04:08:46.212Z,41.63
2019-02-08T04:11:14.412Z,41.77
2019-02-08T04:14:01.669Z,41.64
2019-02-08T04:16:29.841Z,42.01
2019-02-08T04:19:16.910Z,41.62
2019-02-08T04:21:45.070Z,41.71
2019-02-08T04:24:13.247Z,41.87
2019-02-08T04:26:41.500Z,41.83
2019-02-08T04:29:09.598Z,41.84
2019-02-08T04:31:37.762Z,41.68
2019-02-08T04:34:05.928Z,41.53
2019-02-08T04:36:34.064Z,41.85
2019-02-08T04:39:02.265Z,41.89
2019-02-08T04:41:30.401Z,42.01
2019-02-08T04:43:58.568Z,41.61
2019-02-08T04:46:26.718Z,42.00
2019-02-08T04:48:54.865Z,41.97
2019-02-08T04:51:23.038Z,42.15
2019-02-08T04:53:51.167Z,42.06
2019-02-08T04:56:19.345Z,41.96
2019-02-08T04:58:47.558Z,42.22
2019-02-08T05:01:15.701Z,42.07
2019-02-08T05:03:43.851Z,42.05
2019-02-08T05:06:31.084Z,42.04
2019-02-08T05:11:33.392Z,41.77
2019-02-08T05:14:01.615Z,42.18
2019-02-08T05:16:29.867Z,41.80
2019-02-08T05:18:58.037Z,41.83
2019-02-08T05:24:00.177Z,41.89
2019-02-08T05:26:28.352Z,41.91
2019-02-08T05:29:15.592Z,42.11
2019-02-08T05:31:43.760Z,42.05
2019-02-08T05:34:11.920Z,41.98
2019-02-08T05:36:40.084Z,42.11
2019-02-08T05:39:09.679Z,42.12
2019-02-08T05:41:56.711Z,42.15
2019-02-08T05:44:24.847Z,42.34
2019-02-08T05:46:53.015Z,42.50
2019-02-08T05:49:21.163Z,42.60
2019-02-08T05:51:49.331Z,42.93
2019-02-08T05:54:17.552Z,43.04
2019-02-08T05:56:45.689Z,42.78
2019-02-08T05:59:32.813Z,43.05
2019-02-08T06:02:00.970Z,43.06
2019-02-08T06:04:29.171Z,43.13
2019-02-08T06:07:16.389Z,43.56
2019-02-08T06:09:44.570Z,43.45
2019-02-08T06:12:12.761Z,43.37
2019-02-08T06:14:40.989Z,43.59
2019-02-08T06:17:09.182Z,43.52
2019-02-08T06:19:37.351Z,43.72
2019-02-08T06:22:05.589Z,43.69
2019-02-08T06:24:33.999Z,43.78
2019-02-08T06:27:02.097Z,44.14
2019-02-08T06:29:30.326Z,44.13
2019-02-08T06:31:58.596Z,44.58
2019-02-08T06:34:26.749Z,44.59
2019-02-08T06:36:54.945Z,44.77
2019-02-08T06:39:23.157Z,44.58
2019-02-08T06:41:51.351Z,44.92
2019-02-08T06:44:19.502Z,45.02
2019-02-08T06:46:47.640Z,44.98
2019-02-08T06:49:15.844Z,44.98
2019-02-08T06:51:44.005Z,44.96
2019-02-08T06:54:12.175Z,44.99
2019-02-08T06:56:59.350Z,45.04
2019-02-08T07:02:25.103Z,44.89
2019-02-08T07:05:12.233Z,45.00
2019-02-08T07:07:51.026Z,44.97
2019-02-08T07:10:28.885Z,44.90
2019-02-08T07:13:15.952Z,44.77
2019-02-08T07:16:03.019Z,44.71
2019-02-08T07:18:39.100Z,44.68
2019-02-08T07:21:17.704Z,44.69
2019-02-08T07:24:04.779Z,44.77
2019-02-08T07:26:51.845Z,44.78
2019-02-08T07:29:38.945Z,44.73
2019-02-08T07:32:19.036Z,44.80
2019-02-08T07:35:06.124Z,44.93
2019-02-08T07:37:53.217Z,44.88
2019-02-08T07:40:41.062Z,44.81
2019-02-08T07:43:28.148Z,44.73
2019-02-08T07:46:05.309Z,44.87
2019-02-08T07:48:52.384Z,44.67
2019-02-08T07:51:39.448Z,44.76
2019-02-08T07:54:27.163Z,44.70
2019-02-08T07:57:14.254Z,44.43
2019-02-08T07:59:54.353Z,44.53
2019-02-08T08:02:41.465Z,44.36
2019-02-08T08:05:28.525Z,44.47
2019-02-08T08:08:15.605Z,44.45
2019-02-08T08:11:02.673Z,44.34
2019-02-08T08:13:36.826Z,44.55
2019-02-08T08:16:16.070Z,44.44
2019-02-08T08:19:03.176Z,44.45
2019-02-08T08:21:50.253Z,44.37
2019-02-08T08:24:37.724Z,44.25
2019-02-08T08:27:24.902Z,44.30
2019-02-08T08:30:11.960Z,44.21
2019-02-08T08:33:01.235Z,44.00
2019-02-08T08:35:48.461Z,44.03
2019-02-08T08:38:35.725Z,43.82
2019-02-08T08:41:23.020Z,43.72
2019-02-08T08:44:10.303Z,43.90
2019-02-08T08:46:43.488Z,43.64
2019-02-08T08:49:30.803Z,43.50
2019-02-08T08:52:18.037Z,43.54
2019-02-08T08:55:05.322Z,43.16
2019-02-08T08:57:52.561Z,43.10
2019-02-08T09:00:39.812Z,43.23
2019-02-08T09:03:27.046Z,43.03
2019-02-08T09:06:14.316Z,43.11
2019-02-08T09:09:01.548Z,43.12
2019-02-08T09:11:48.768Z,43.03
2019-02-08T09:14:35.990Z,43.15
2019-02-08T09:17:23.239Z,43.22
2019-02-08T09:20:10.457Z,43.40
2019-02-08T09:22:57.683Z,43.23
2019-02-08T09:25:49.698Z,43.36
2019-02-08T09:28:33.786Z,43.28
2019-02-08T09:31:21.013Z,43.36
2019-02-08T09:34:08.262Z,43.38
2019-02-08T09:36:55.494Z,43.28
2019-02-08T09:39:42.786Z,43.23
2019-02-08T09:42:30.004Z,43.37
2019-02-08T09:45:17.243Z,43.33
2019-02-08T09:48:04.505Z,43.35
2019-02-08T09:50:51.729Z,43.42
2019-02-08T09:53:28.589Z,43.53
2019-02-08T09:56:15.847Z,43.38
2019-02-08T09:59:03.061Z,43.40
2019-02-08T10:01:50.337Z,43.57
2019-02-08T10:04:37.565Z,43.53
2019-02-08T10:07:24.825Z,43.59
2019-02-08T10:10:12.043Z,43.60
2019-02-08T10:12:59.302Z,43.39
2019-02-08T10:15:46.521Z,43.50
2019-02-08T10:18:33.814Z,43.50
2019-02-08T10:21:21.037Z,43.58
2019-02-08T10:23:55.367Z,43.52
2019-02-08T10:26:42.629Z,43.70
2019-02-08T10:29:29.913Z,43.57
2019-02-08T10:32:17.123Z,43.49
2019-02-08T10:35:04.391Z,43.58
2019-02-08T10:37:51.629Z,43.71
2019-02-08T10:40:38.856Z,43.58
2019-02-08T10:43:26.085Z,43.50
2019-02-08T10:46:05.096Z,43.59
2019-02-08T10:48:52.352Z,43.51
2019-02-08T10:51:39.583Z,43.69
2019-02-08T10:56:53.969Z,43.35
2019-02-08T10:59:41.175Z,43.52
2019-02-08T11:02:28.444Z,43.25
2019-02-08T11:05:15.678Z,43.30
2019-02-08T11:08:02.965Z,43.54
2019-02-08T11:10:50.148Z,43.67
2019-02-08T11:13:37.265Z,43.49
2019-02-08T11:16:24.482Z,43.31
2019-02-08T11:19:11.730Z,43.32
2019-02-08T11:21:39.859Z,43.16
2019-02-08T11:24:08.016Z,42.80
2019-02-08T11:26:36.175Z,43.04
2019-02-08T11:29:04.352Z,42.83
2019-02-08T11:31:32.525Z,43.01
2019-02-08T11:34:00.654Z,42.93
2019-02-08T11:36:28.788Z,43.04
2019-02-08T11:38:56.938Z,42.97
2019-02-08T11:41:25.085Z,43.00
2019-02-08T11:43:53.216Z,42.89
2019-02-08T11:46:21.393Z,42.90
2019-02-08T11:48:49.533Z,42.84
2019-02-08T11:51:17.722Z,42.86
2019-02-08T11:53:45.869Z,42.88
2019-02-08T11:56:14.011Z,42.97
2019-02-08T11:58:42.178Z,42.79
2019-02-08T12:01:10.333Z,42.87
2019-02-08T12:03:38.460Z,42.79
2019-02-08T12:06:06.624Z,42.81
2019-02-08T12:08:34.764Z,42.74
2019-02-08T12:11:03.053Z,42.77
2019-02-08T12:13:31.190Z,42.86
2019-02-08T12:15:59.331Z,42.85
2019-02-08T12:18:27.463Z,42.77
2019-02-08T12:20:55.624Z,42.88
2019-02-08T12:23:23.763Z,42.76
2019-02-08T12:25:51.941Z,42.69
2019-02-08T12:28:20.079Z,42.67
2019-02-08T12:30:48.208Z,42.75
2019-02-08T12:33:16.366Z,42.82
2019-02-08T12:35:44.547Z,42.74
2019-02-08T12:38:12.687Z,42.85
2019-02-08T12:40:40.854Z,42.89
2019-02-08T12:43:09.006Z,42.70
2019-02-08T12:45:37.159Z,42.84
2019-02-08T12:48:05.373Z,42.72
2019-02-08T12:50:34.185Z,42.75
2019-02-08T12:53:02.391Z,42.85
2019-02-08T12:55:30.556Z,42.87
2019-02-08T12:57:58.909Z,42.80
2019-02-08T13:00:27.292Z,42.93
2019-02-08T13:02:55.433Z,42.93
2019-02-08T13:05:23.588Z,42.84
2019-02-08T13:07:51.734Z,42.93
2019-02-08T13:10:20.865Z,42.87
2019-02-08T13:12:49.000Z,42.81
2019-02-08T13:15:17.194Z,42.85
2019-02-08T13:17:45.370Z,42.96
2019-02-08T13:20:14.629Z,42.90
2019-02-08T13:22:42.720Z,42.83
2019-02-08T13:25:10.909Z,42.90
2019-02-08T13:27:39.057Z,42.91
2019-02-08T13:30:09.623Z,42.78
2019-02-08T13:32:37.752Z,42.80
2019-02-08T13:35:06.017Z,42.89
2019-02-08T13:37:34.151Z,42.89
2019-02-08T13:40:02.320Z,42.82
2019-02-08T13:42:30.440Z,43.02
2019-02-08T13:44:58.596Z,43.09
2019-02-08T13:47:26.731Z,43.17
2019-02-08T13:49:54.876Z,43.13
2019-02-08T13:52:23.047Z,42.96
2019-02-08T13:54:51.182Z,43.03
2019-02-08T13:57:19.339Z,42.90
2019-02-08T13:59:47.506Z,42.88
2019-02-08T14:02:15.650Z,43.30
2019-02-08T14:04:43.793Z,43.26
2019-02-08T14:07:12.047Z,43.10
2019-02-08T14:09:40.190Z,43.19
2019-02-08T14:12:08.366Z,43.14
2019-02-08T14:14:36.496Z,43.14
2019-02-08T14:17:04.689Z,43.14
2019-02-08T14:19:32.826Z,43.13
2019-02-08T14:22:00.993Z,43.05
2019-02-08T14:24:29.140Z,42.99
2019-02-08T14:26:57.284Z,42.99
2019-02-08T14:29:25.442Z,43.15
2019-02-08T14:31:53.564Z,42.91
2019-02-08T14:34:21.732Z,43.08
2019-02-08T14:36:49.914Z,43.12
2019-02-08T14:39:18.082Z,43.14
2019-02-08T14:41:46.204Z,43.22
2019-02-08T14:44:14.349Z,42.96
2019-02-08T14:46:42.516Z,43.01
2019-02-08T14:49:10.687Z,42.94
2019-02-08T14:51:38.826Z,43.00
2019-02-08T14:54:06.962Z,43.10
2019-02-08T14:56:35.135Z,42.86
2019-02-08T14:59:03.265Z,42.85
2019-02-08T15:01:31.391Z,42.81
2019-02-08T15:03:59.558Z,42.84
2019-02-08T15:06:27.691Z,42.86
2019-02-08T15:08:55.857Z,42.90
2019-02-08T15:11:24.002Z,42.93
2019-02-08T15:13:52.136Z,42.86
2019-02-08T15:16:20.307Z,42.71
2019-02-08T15:18:48.441Z,42.69
2019-02-08T15:21:16.598Z,42.98
2019-02-08T15:23:44.753Z,42.81
2019-02-08T15:26:12.910Z,42.73
2019-02-08T15:28:41.048Z,42.68
2019-02-08T15:31:09.198Z,42.90
2019-02-08T15:33:37.331Z,42.80
2019-02-08T15:36:05.489Z,42.88
2019-02-08T15:38:33.639Z,42.86
2019-02-08T15:41:01.798Z,42.69
2019-02-08T15:43:29.925Z,42.61
2019-02-08T15:45:59.304Z,42.76
2019-02-08T15:48:27.449Z,42.51
2019-02-08T15:50:55.690Z,42.57
2019-02-08T15:53:23.857Z,42.55
2019-02-08T15:55:53.544Z,42.48
2019-02-08T15:58:21.713Z,42.62
2019-02-08T16:00:49.848Z,42.54
2019-02-08T16:03:17.989Z,42.47
2019-02-08T16:05:46.165Z,42.38
2019-02-08T16:08:14.309Z,42.32
2019-02-08T16:10:42.440Z,42.27
2019-02-08T16:13:10.589Z,42.45
2019-02-08T16:15:38.737Z,42.33
2019-02-08T16:18:06.885Z,42.38
2019-02-08T16:20:35.025Z,42.50
2019-02-08T16:23:03.210Z,42.43
2019-02-08T16:25:31.376Z,42.43
2019-02-08T16:27:59.503Z,42.47
2019-02-08T16:30:28.750Z,42.40
2019-02-08T16:32:56.879Z,42.25
2019-02-08T16:35:25.052Z,42.31
2019-02-08T16:37:53.175Z,42.28
2019-02-08T16:40:22.320Z,42.30
2019-02-08T16:42:50.472Z,42.35
2019-02-08T16:45:19.711Z,42.26
2019-02-08T16:47:47.915Z,42.29
2019-02-08T16:50:17.475Z,42.27
2019-02-08T16:52:45.603Z,42.24
2019-02-08T16:55:13.773Z,42.09
2019-02-08T16:57:47.681Z,42.29
2019-02-08T17:00:16.216Z,42.10
2019-02-08T17:02:45.259Z,42.34
2019-02-08T17:05:14.096Z,42.31
2019-02-08T17:07:42.238Z,42.16
2019-02-08T17:10:11.188Z,42.21
2019-02-08T17:12:39.339Z,42.17
2019-02-08T17:15:08.129Z,42.19
2019-02-08T17:17:36.293Z,42.17
2019-02-08T17:20:05.309Z,42.15
2019-02-08T17:22:33.477Z,42.22
2019-02-08T17:25:01.638Z,42.11
2019-02-08T17:27:29.806Z,42.19
2019-02-08T17:29:57.952Z,42.07
2019-02-08T17:32:26.085Z,42.11
2019-02-08T17:34:54.225Z,42.10
2019-02-08T17:37:22.390Z,42.16
2019-02-08T17:39:50.534Z,42.10
2019-02-08T17:42:18.704Z,42.30
2019-02-08T17:44:46.918Z,42.07
2019-02-08T17:47:15.077Z,42.08
2019-02-08T17:49:43.208Z,42.16
2019-02-08T17:52:11.340Z,42.05
2019-02-08T17:54:39.755Z,42.03
2019-02-08T17:57:07.884Z,42.16
2019-02-08T17:59:36.021Z,41.92
2019-02-08T18:02:04.253Z,42.05
2019-02-08T18:04:32.420Z,41.88
2019-02-08T18:07:00.573Z,42.09
2019-02-08T18:09:28.709Z,41.97
2019-02-08T18:11:56.870Z,42.01
2019-02-08T18:14:25.029Z,42.13
2019-02-08T18:16:53.201Z,41.97
2019-02-08T18:19:21.338Z,42.03
2019-02-08T18:21:49.490Z,41.89
2019-02-08T18:24:17.640Z,42.05
2019-02-08T18:26:45.781Z,42.03
2019-02-08T18:29:13.977Z,42.01
2019-02-08T18:31:42.118Z,42.00
2019-02-08T18:34:10.250Z,42.10
2019-02-08T18:36:38.425Z,42.11
2019-02-08T18:39:07.076Z,42.11
2019-02-08T18:41:35.218Z,41.91
2019-02-08T18:44:03.365Z,42.04
2019-02-08T18:46:31.509Z,41.99
2019-02-08T18:48:59.644Z,41.85
2019-02-08T18:51:27.767Z,41.99
2019-02-08T18:53:55.922Z,42.06
2019-02-08T18:56:24.062Z,42.05
2019-02-08T18:58:52.253Z,41.81
2019-02-08T19:01:20.380Z,41.90
2019-02-08T19:03:48.529Z,42.03
2019-02-08T19:06:16.669Z,42.12
2019-02-08T19:08:44.799Z,41.76
2019-02-08T19:11:13.051Z,41.79
2019-02-08T19:13:41.203Z,42.11
2019-02-08T19:16:09.341Z,41.90
2019-02-08T19:18:37.470Z,41.80
2019-02-08T19:21:05.621Z,41.93
2019-02-08T19:23:33.763Z,41.88
2019-02-08T19:26:01.904Z,42.03
2019-02-08T19:28:30.035Z,41.81
2019-02-08T19:30:58.192Z,41.79
2019-02-08T19:33:26.384Z,41.87
2019-02-08T19:35:54.524Z,41.80
2019-02-08T19:38:22.651Z,41.70
2019-02-08T19:40:50.799Z,42.00
2019-02-08T19:43:18.968Z,41.87
2019-02-08T19:45:47.104Z,42.01
2019-02-08T19:48:15.249Z,41.82
2019-02-08T19:50:44.125Z,41.93
2019-02-08T19:53:12.373Z,41.79
2019-02-08T19:55:40.608Z,41.80
2019-02-08T19:58:09.189Z,41.70
2019-02-08T20:00:37.384Z,41.84
2019-02-08T20:03:05.858Z,41.73
2019-02-08T20:05:33.997Z,42.13
2019-02-08T20:08:02.162Z,41.70
2019-02-08T20:10:31.360Z,42.01
2019-02-08T20:12:59.509Z,41.73
2019-02-08T20:15:27.697Z,41.94
2019-02-08T20:17:55.845Z,41.76
2019-02-08T20:20:24.000Z,41.96
2019-02-08T20:22:52.150Z,42.00
2019-02-08T20:25:21.313Z,42.06
2019-02-08T20:27:49.439Z,41.98
2019-02-08T20:30:18.496Z,42.01
2019-02-08T20:32:46.667Z,42.00
2019-02-08T20:35:15.789Z,41.96
2019-02-08T20:37:44.040Z,42.00
2019-02-08T20:40:13.341Z,42.02
2019-02-08T20:42:41.475Z,42.08
2019-02-08T20:45:14.939Z,41.97
2019-02-08T20:47:43.078Z,41.93
2019-02-08T20:50:11.219Z,41.61
2019-02-08T20:52:39.410Z,41.89
2019-02-08T20:55:07.726Z,41.71
2019-02-08T20:57:35.848Z,41.90
2019-02-08T21:00:05.120Z,41.81
2019-02-08T21:02:33.363Z,41.88
2019-02-08T21:05:01.510Z,41.78
2019-02-08T21:07:29.675Z,41.78
2019-02-08T21:09:57.864Z,41.97
2019-02-08T21:12:26.015Z,41.82
2019-02-08T21:14:54.177Z,41.94
2019-02-08T21:17:22.342Z,41.90
2019-02-08T21:19:50.488Z,41.75
2019-02-08T21:22:18.666Z,41.77
2019-02-08T21:24:46.880Z,42.02
2019-02-08T21:27:15.030Z,41.77
2019-02-08T21:29:43.157Z,41.85
2019-02-08T21:32:11.350Z,41.71
2019-02-08T21:34:39.482Z,41.96
2019-02-08T21:37:07.650Z,41.85
2019-02-08T21:39:35.789Z,41.78
2019-02-08T21:42:03.941Z,41.72
2019-02-08T21:44:32.091Z,41.91
2019-02-08T21:47:00.213Z,41.84
2019-02-08T21:49:28.360Z,41.90
2019-02-08T21:51:56.507Z,41.82
2019-02-08T21:54:24.665Z,41.88
2019-02-08T21:56:52.806Z,42.02
2019-02-08T21:59:20.958Z,41.77
2019-02-08T22:01:49.115Z,41.96
2019-02-08T22:04:17.260Z,41.90
2019-02-08T22:06:45.403Z,41.87
2019-02-08T22:09:13.560Z,41.92
2019-02-08T22:11:41.688Z,41.76
2019-02-08T22:14:09.828Z,42.01
2019-02-08T22:16:37.975Z,42.01
2019-02-08T22:19:06.125Z,41.83
2019-02-08T22:21:34.264Z,41.86
2019-02-08T22:24:02.428Z,42.00
2019-02-08T22:26:30.590Z,42.00
2019-02-08T22:28:58.824Z,41.84
2019-02-08T22:31:26.951Z,41.97
2019-02-08T22:33:55.088Z,41.95
2019-02-08T22:36:23.254Z,41.87
2019-02-08T22:38:51.388Z,41.97
2019-02-08T22:41:19.536Z,41.86
2019-02-08T22:43:47.678Z,41.84
2019-02-08T22:46:15.846Z,41.96
2019-02-08T22:48:43.982Z,41.89
2019-02-08T22:51:12.153Z,41.92
2019-02-08T22:53:40.284Z,41.99
2019-02-08T22:56:08.436Z,41.89
2019-02-08T22:58:36.568Z,41.88
2019-02-08T23:01:18.733Z,41.87
2019-02-08T23:03:47.828Z,41.95
2019-02-08T23:06:15.966Z,41.92
2019-02-08T23:08:44.207Z,41.84
2019-02-08T23:11:12.339Z,42.00
2019-02-08T23:13:40.481Z,41.90
2019-02-08T23:16:08.617Z,42.07
2019-02-08T23:18:36.794Z,42.01
2019-02-08T23:21:05.165Z,41.97
2019-02-08T23:23:33.308Z,41.97
2019-02-08T23:26:01.480Z,42.09
2019-02-08T23:28:29.630Z,42.03
2019-02-08T23:30:57.768Z,41.97
2019-02-08T23:33:25.927Z,41.98
2019-02-08T23:35:54.049Z,41.91
2019-02-08T23:38:22.236Z,41.87
2019-02-08T23:40:50.369Z,41.94
2019-02-08T23:43:18.510Z,42.07
2019-02-08T23:45:46.652Z,42.01
2019-02-08T23:48:14.799Z,42.05
2019-02-08T23:50:42.966Z,41.96
2019-02-08T23:53:11.112Z,42.00
2019-02-08T23:55:39.249Z,42.00
2019-02-08T23:58:07.760Z,42.04
